createdAt,value
2023-05-05T00:01:25.486Z,101196.23
2023-05-05T00:04:53.019Z,101195.64
2023-05-05T00:08:20.030Z,101200.00
2023-05-05T00:11:46.946Z,101202.80
2023-05-05T00:15:14.127Z,101204.73
2023-05-05T00:18:41.124Z,101204.38
2023-05-05T00:22:07.944Z,101195.98
2023-05-05T00:25:34.907Z,101192.49
2023-05-05T00:29:01.964Z,101195.81
2023-05-05T00:32:28.839Z,101199.83
2023-05-05T00:35:55.873Z,101201.16
2023-05-05T00:39:22.830Z,101201.98
2023-05-05T00:42:51.703Z,101202.77
2023-05-05T00:46:25.955Z,101206.99
2023-05-05T00:49:53.424Z,101205.77
2023-05-05T00:53:21.490Z,101200.86
2023-05-05T00:56:49.047Z,101201.92
2023-05-05T01:00:16.761Z,101207.55
2023-05-05T01:03:43.886Z,101199.95
2023-05-05T01:07:22.298Z,101197.45
2023-05-05T01:10:59.793Z,101200.39
2023-05-05T01:14:32.045Z,101198.31
2023-05-05T01:18:07.706Z,101195.74
2023-05-05T01:21:38.960Z,101195.23
2023-05-05T01:25:40.450Z,101193.55
2023-05-05T01:29:28.423Z,101190.27
2023-05-05T01:32:59.103Z,101189.41
2023-05-05T01:36:32.625Z,101191.89
2023-05-05T01:40:05.285Z,101191.26
2023-05-05T01:43:35.257Z,101194.46
2023-05-05T01:47:03.946Z,101192.80
2023-05-05T01:50:32.259Z,101193.27
2023-05-05T01:54:00.972Z,101190.59
2023-05-05T01:57:31.466Z,101190.19
2023-05-05T02:01:00.220Z,101193.96
2023-05-05T02:04:29.262Z,101195.77
2023-05-05T02:08:00.098Z,101196.36
2023-05-05T02:11:28.844Z,101194.84
2023-05-05T02:14:58.838Z,101193.17
2023-05-05T02:18:28.631Z,101198.86
2023-05-05T02:21:53.981Z,101200.52
2023-05-05T02:25:21.084Z,101197.14
2023-05-05T02:28:53.853Z,101197.20
2023-05-05T02:32:25.039Z,101195.70
2023-05-05T02:35:55.256Z,101198.55
2023-05-05T02:39:31.804Z,101200.20
2023-05-05T02:43:06.033Z,101201.88
2023-05-05T02:46:34.002Z,101199.30
2023-05-05T02:50:01.208Z,101200.75
2023-05-05T02:53:30.356Z,101202.37
2023-05-05T02:57:00.243Z,101202.23
2023-05-05T03:00:39.698Z,101204.20
2023-05-05T03:04:11.917Z,101207.56
2023-05-05T03:07:54.988Z,101216.65
2023-05-05T03:11:28.787Z,101218.38
2023-05-05T03:14:59.141Z,101225.48
2023-05-05T03:18:31.058Z,101224.73
2023-05-05T03:22:00.776Z,101227.20
2023-05-05T03:25:43.875Z,101225.69
2023-05-05T03:29:12.498Z,101227.98
2023-05-05T03:32:39.869Z,101225.05
2023-05-05T03:36:08.200Z,101226.63
2023-05-05T03:39:35.390Z,101227.35
2023-05-05T03:43:03.629Z,101222.02
2023-05-05T03:46:32.342Z,101222.98
2023-05-05T03:50:00.730Z,101219.10
2023-05-05T03:53:28.276Z,101218.92
2023-05-05T03:56:56.103Z,101222.08
2023-05-05T04:00:23.471Z,101226.80
2023-05-05T04:03:50.466Z,101227.93
2023-05-05T04:07:17.594Z,101226.29
2023-05-05T04:10:44.707Z,101230.26
2023-05-05T04:14:11.997Z,101223.25
2023-05-05T04:17:39.306Z,101228.63
2023-05-05T04:21:06.990Z,101228.94
2023-05-05T04:24:34.083Z,101233.36
2023-05-05T04:28:01.512Z,101232.77
2023-05-05T04:31:28.988Z,101235.82
2023-05-05T04:34:56.416Z,101241.89
2023-05-05T04:38:23.926Z,101240.95
2023-05-05T04:41:51.681Z,101240.67
2023-05-05T04:45:19.428Z,101240.14
2023-05-05T04:48:47.543Z,101252.77
2023-05-05T04:52:16.199Z,101257.94
2023-05-05T04:55:43.392Z,101261.77
2023-05-05T04:59:10.375Z,101263.52
2023-05-05T05:02:38.511Z,101264.48
2023-05-05T05:06:06.050Z,101268.55
2023-05-05T05:09:32.897Z,101275.42
2023-05-05T05:12:59.909Z,101273.63
2023-05-05T05:16:27.336Z,101275.90
2023-05-05T05:19:55.246Z,101277.08
2023-05-05T05:23:22.438Z,101278.48
2023-05-05T05:26:49.425Z,101274.62
2023-05-05T05:30:18.478Z,101280.20
2023-05-05T05:33:45.570Z,101282.51
2023-05-05T05:37:13.554Z,101286.41
2023-05-05T05:40:41.357Z,101290.60
2023-05-05T05:44:08.506Z,101286.30
2023-05-05T05:47:35.678Z,101293.09
2023-05-05T05:51:03.243Z,101292.60
2023-05-05T05:54:32.816Z,101296.30
2023-05-05T05:58:00.194Z,101293.98
2023-05-05T06:01:27.810Z,101286.09
2023-05-05T06:04:55.399Z,101283.12
2023-05-05T06:08:24.805Z,101292.63
2023-05-05T06:11:53.031Z,101291.96
2023-05-05T06:15:21.482Z,101300.14
2023-05-05T06:18:48.916Z,101303.67
2023-05-05T06:22:16.537Z,101311.10
2023-05-05T06:25:44.044Z,101306.39
2023-05-05T06:29:12.423Z,101308.45
2023-05-05T06:32:39.635Z,101306.69
2023-05-05T06:36:07.421Z,101305.33
2023-05-05T06:39:34.254Z,101304.54
2023-05-05T06:43:01.012Z,101300.71
2023-05-05T06:46:33.504Z,101295.23
2023-05-05T06:50:00.596Z,101298.95
2023-05-05T06:53:27.743Z,101303.46
2023-05-05T06:56:54.669Z,101300.08
2023-05-05T07:00:23.147Z,101302.70
2023-05-05T07:03:50.152Z,101299.42
2023-05-05T07:07:17.375Z,101293.84
2023-05-05T07:10:44.314Z,101289.05
2023-05-05T07:14:11.497Z,101297.52
2023-05-05T07:17:38.690Z,101298.50
2023-05-05T07:21:06.672Z,101295.75
2023-05-05T07:24:33.491Z,101293.58
2023-05-05T07:28:00.720Z,101294.81
2023-05-05T07:31:27.681Z,101289.41
2023-05-05T07:34:54.420Z,101288.94
2023-05-05T07:38:21.209Z,101294.00
2023-05-05T07:41:48.173Z,101294.30
2023-05-05T07:45:15.386Z,101297.73
2023-05-05T07:48:42.193Z,101299.08
2023-05-05T07:52:09.210Z,101299.38
2023-05-05T07:55:36.299Z,101301.16
2023-05-05T07:59:03.258Z,101298.53
2023-05-05T08:02:30.552Z,101303.02
2023-05-05T08:06:06.894Z,101306.31
2023-05-05T08:09:33.885Z,101302.73
2023-05-05T08:13:02.252Z,101309.38
2023-05-05T08:16:30.525Z,101313.19
2023-05-05T08:19:57.643Z,101319.52
2023-05-05T08:23:24.797Z,101319.02
2023-05-05T08:26:51.767Z,101321.68
2023-05-05T08:30:21.379Z,101320.02
2023-05-05T08:33:48.402Z,101318.64
2023-05-05T08:37:15.324Z,101323.70
2023-05-05T08:40:42.571Z,101327.75
2023-05-05T08:44:11.332Z,101326.52
2023-05-05T08:47:39.051Z,101325.94
2023-05-05T08:51:07.920Z,101320.54
2023-05-05T08:54:38.936Z,101315.39
2023-05-05T08:58:06.320Z,101315.63
2023-05-05T09:01:34.157Z,101316.94
2023-05-05T09:05:05.324Z,101318.67
2023-05-05T09:08:33.067Z,101318.88
2023-05-05T09:12:01.987Z,101323.45
2023-05-05T09:15:29.803Z,101325.43
2023-05-05T09:19:06.428Z,101323.92
2023-05-05T09:22:41.654Z,101312.98
2023-05-05T09:26:11.639Z,101316.30
2023-05-05T09:29:39.983Z,101320.02
2023-05-05T09:33:08.748Z,101317.27
2023-05-05T09:36:47.755Z,101323.14
2023-05-05T09:40:16.573Z,101325.27
2023-05-05T09:43:53.393Z,101323.50
2023-05-05T09:47:29.613Z,101327.21
2023-05-05T09:50:57.418Z,101324.95
2023-05-05T09:54:29.042Z,101330.06
2023-05-05T09:57:56.247Z,101330.63
2023-05-05T10:01:25.739Z,101326.20
2023-05-05T10:05:05.317Z,101326.20
2023-05-05T10:08:34.235Z,101329.52
2023-05-05T10:12:02.468Z,101327.92
2023-05-05T10:15:29.833Z,101331.29
2023-05-05T10:18:58.287Z,101326.88
2023-05-05T10:22:26.374Z,101321.41
2023-05-05T10:26:02.047Z,101317.70
2023-05-05T10:29:43.144Z,101313.92
2023-05-05T10:33:30.990Z,101309.83
2023-05-05T10:37:00.858Z,101304.88
2023-05-05T10:40:28.077Z,101300.89
2023-05-05T10:43:56.497Z,101299.33
2023-05-05T10:47:24.819Z,101301.12
2023-05-05T10:51:00.224Z,101292.66
2023-05-05T10:54:37.838Z,101287.21
2023-05-05T10:58:05.122Z,101285.48
2023-05-05T11:01:34.610Z,101286.89
2023-05-05T11:05:17.953Z,101277.70
2023-05-05T11:08:46.163Z,101272.94
2023-05-05T11:12:13.988Z,101255.83
2023-05-05T11:15:41.681Z,101247.34
2023-05-05T11:19:48.399Z,101244.69
2023-05-05T11:23:28.113Z,101247.32
2023-05-05T11:26:53.807Z,101249.98
2023-05-05T11:30:20.774Z,101247.15
2023-05-05T11:33:48.028Z,101248.22
2023-05-05T11:37:16.753Z,101241.48
2023-05-05T11:40:47.135Z,101242.90
2023-05-05T11:44:16.321Z,101243.95
2023-05-05T11:47:43.860Z,101236.52
2023-05-05T11:51:14.953Z,101233.83
2023-05-05T11:54:47.760Z,101241.23
2023-05-05T11:58:22.623Z,101239.44
2023-05-05T12:01:50.051Z,101234.69
2023-05-05T12:05:23.433Z,101238.63
2023-05-05T12:08:51.376Z,101239.52
2023-05-05T12:12:19.294Z,101247.45
2023-05-05T12:15:46.749Z,101239.98
2023-05-05T12:19:14.556Z,101235.34
2023-05-05T12:22:42.335Z,101245.58
2023-05-05T12:26:09.454Z,101236.42
2023-05-05T12:29:36.408Z,101239.02
2023-05-05T12:33:07.823Z,101235.81
2023-05-05T12:36:35.784Z,101230.35
2023-05-05T12:40:03.932Z,101229.84
2023-05-05T12:43:35.611Z,101231.95
2023-05-05T12:47:03.114Z,101229.77
2023-05-05T12:50:35.872Z,101227.95
2023-05-05T12:54:07.298Z,101226.11
2023-05-05T12:57:34.331Z,101225.23
2023-05-05T13:01:14.378Z,101216.54
2023-05-05T13:04:51.797Z,101209.84
2023-05-05T13:08:18.910Z,101214.77
2023-05-05T13:11:45.751Z,101223.39
2023-05-05T13:15:14.994Z,101215.31
2023-05-05T13:18:48.435Z,101208.59
2023-05-05T13:22:15.844Z,101212.34
2023-05-05T13:25:42.708Z,101203.98
2023-05-05T13:29:09.587Z,101205.48
2023-05-05T13:32:36.845Z,101202.83
2023-05-05T13:36:04.965Z,101195.50
2023-05-05T13:39:31.951Z,101187.09
2023-05-05T13:42:58.845Z,101193.72
2023-05-05T13:46:26.292Z,101178.95
2023-05-05T13:49:53.369Z,101180.36
2023-05-05T13:53:20.433Z,101172.20
2023-05-05T13:56:47.466Z,101170.08
2023-05-05T14:00:17.175Z,101170.40
2023-05-05T14:03:44.210Z,101174.09
2023-05-05T14:07:11.190Z,101168.96
2023-05-05T14:10:38.450Z,101168.42
2023-05-05T14:14:06.221Z,101166.72
2023-05-05T14:17:33.318Z,101166.95
2023-05-05T14:21:00.171Z,101167.68
2023-05-05T14:24:27.306Z,101164.65
2023-05-05T14:27:54.642Z,101164.63
2023-05-05T14:31:21.591Z,101155.81
2023-05-05T14:34:50.420Z,101163.02
2023-05-05T14:38:17.784Z,101155.64
2023-05-05T14:41:44.923Z,101160.41
2023-05-05T14:45:13.359Z,101153.88
2023-05-05T14:48:40.558Z,101147.40
2023-05-05T14:52:07.458Z,101163.84
2023-05-05T14:55:34.929Z,101156.62
2023-05-05T14:59:01.783Z,101161.20
2023-05-05T15:02:28.880Z,101153.98
2023-05-05T15:05:56.194Z,101153.45
2023-05-05T15:09:23.177Z,101153.63
2023-05-05T15:12:51.201Z,101152.73
2023-05-05T15:16:18.292Z,101146.91
2023-05-05T15:19:45.699Z,101149.73
2023-05-05T15:23:12.670Z,101157.16
2023-05-05T15:26:39.626Z,101151.67
2023-05-05T15:30:08.397Z,101156.98
2023-05-05T15:33:35.254Z,101161.71
2023-05-05T15:37:02.214Z,101161.89
2023-05-05T15:40:29.433Z,101164.66
2023-05-05T15:43:57.071Z,101166.02
2023-05-05T15:47:24.047Z,101157.73
2023-05-05T15:50:51.086Z,101154.48
2023-05-05T15:54:18.236Z,101157.40
2023-05-05T15:57:45.061Z,101158.03
2023-05-05T16:01:12.067Z,101158.54
2023-05-05T16:04:41.996Z,101156.44
2023-05-05T16:08:10.422Z,101159.63
2023-05-05T16:11:38.357Z,101153.63
2023-05-05T16:15:05.577Z,101147.08
2023-05-05T16:18:32.539Z,101143.52
2023-05-05T16:21:59.722Z,101139.45
2023-05-05T16:25:26.838Z,101139.25
2023-05-05T16:28:53.753Z,101136.23
2023-05-05T16:32:20.581Z,101135.48
2023-05-05T16:35:47.643Z,101128.71
2023-05-05T16:39:14.826Z,101131.31
2023-05-05T16:42:44.239Z,101134.25
2023-05-05T16:46:10.007Z,101133.66
2023-05-05T16:49:36.887Z,101133.88
2023-05-05T16:53:03.877Z,101133.04
2023-05-05T16:56:30.820Z,101137.52
2023-05-05T16:59:59.057Z,101131.58
2023-05-05T17:03:26.468Z,101132.17
2023-05-05T17:06:55.082Z,101133.12
2023-05-05T17:10:22.158Z,101127.35
2023-05-05T17:13:49.326Z,101139.37
2023-05-05T17:17:16.590Z,101139.09
2023-05-05T17:20:43.936Z,101143.00
2023-05-05T17:24:11.626Z,101144.63
2023-05-05T17:27:38.989Z,101147.50
2023-05-05T17:31:08.228Z,101153.58
2023-05-05T17:34:37.925Z,101158.54
2023-05-05T17:38:07.055Z,101161.59
2023-05-05T17:41:37.068Z,101161.81
2023-05-05T17:45:09.663Z,101159.05
2023-05-05T17:48:41.685Z,101167.28
2023-05-05T17:52:12.692Z,101166.23
2023-05-05T17:55:41.717Z,101173.58
2023-05-05T17:59:11.196Z,101174.24
2023-05-05T18:02:39.853Z,101173.70
2023-05-05T18:06:11.002Z,101173.54
2023-05-05T18:09:39.873Z,101172.16
2023-05-05T18:13:07.621Z,101171.26
2023-05-05T18:16:35.324Z,101170.73
2023-05-05T18:20:02.760Z,101177.22
2023-05-05T18:23:30.648Z,101173.39
2023-05-05T18:26:58.720Z,101172.70
2023-05-05T18:30:28.781Z,101176.76
2023-05-05T18:33:57.314Z,101177.67
2023-05-05T18:37:24.622Z,101183.31
2023-05-05T18:40:52.109Z,101188.61
2023-05-05T18:44:19.513Z,101189.38
2023-05-05T18:47:49.656Z,101189.42
2023-05-05T18:51:17.305Z,101182.48
2023-05-05T18:54:44.641Z,101182.19
2023-05-05T18:58:12.769Z,101184.34
2023-05-05T19:01:41.844Z,101183.89
2023-05-05T19:05:12.196Z,101188.32
2023-05-05T19:08:39.540Z,101184.73
2023-05-05T19:12:07.488Z,101187.15
2023-05-05T19:15:34.475Z,101179.92
2023-05-05T19:19:01.325Z,101180.25
2023-05-05T19:22:29.406Z,101177.91
2023-05-05T19:25:56.491Z,101180.09
2023-05-05T19:29:23.404Z,101177.18
2023-05-05T19:32:50.378Z,101175.86
2023-05-05T19:36:19.168Z,101174.74
2023-05-05T19:39:46.080Z,101168.46
2023-05-05T19:43:12.813Z,101172.90
2023-05-05T19:46:40.003Z,101171.04
2023-05-05T19:50:08.364Z,101178.46
2023-05-05T19:53:35.809Z,101176.63
2023-05-05T19:57:02.773Z,101177.90
2023-05-05T20:00:29.864Z,101180.56
2023-05-05T20:03:58.308Z,101170.85
2023-05-05T20:07:26.010Z,101175.81
2023-05-05T20:10:53.061Z,101178.46
2023-05-05T20:14:20.027Z,101181.32
2023-05-05T20:17:47.915Z,101182.45
2023-05-05T20:21:15.361Z,101182.66
2023-05-05T20:24:42.731Z,101180.48
2023-05-05T20:28:09.947Z,101183.89
2023-05-05T20:31:38.228Z,101183.96
2023-05-05T20:35:06.240Z,101180.20
2023-05-05T20:38:33.007Z,101175.60
2023-05-05T20:41:59.727Z,101175.34
2023-05-05T20:45:26.647Z,101177.86
2023-05-05T20:48:53.685Z,101174.13
2023-05-05T20:52:20.909Z,101175.80
2023-05-05T20:55:48.045Z,101174.34
2023-05-05T20:59:15.155Z,101174.23
2023-05-05T21:02:42.389Z,101181.84
2023-05-05T21:06:09.578Z,101179.34
2023-05-05T21:09:37.015Z,101167.55
2023-05-05T21:13:04.315Z,101169.52
2023-05-05T21:16:31.605Z,101170.00
2023-05-05T21:19:58.835Z,101162.02
2023-05-05T21:23:26.166Z,101162.27
2023-05-05T21:26:53.212Z,101150.45
2023-05-05T21:30:19.926Z,101150.31
2023-05-05T21:33:47.508Z,101143.19
2023-05-05T21:37:14.991Z,101139.39
2023-05-05T21:40:41.880Z,101137.92
2023-05-05T21:44:09.030Z,101133.34
2023-05-05T21:47:36.043Z,101129.09
2023-05-05T21:51:03.024Z,101130.41
2023-05-05T21:54:30.456Z,101131.55
2023-05-05T21:57:57.540Z,101133.60
2023-05-05T22:01:24.668Z,101132.34
2023-05-05T22:04:53.522Z,101131.61
2023-05-05T22:08:20.557Z,101129.52
2023-05-05T22:11:47.667Z,101127.27
2023-05-05T22:15:19.920Z,101121.86
2023-05-05T22:18:47.157Z,101122.08
2023-05-05T22:22:14.407Z,101120.34
2023-05-05T22:25:41.413Z,101119.08
2023-05-05T22:29:08.722Z,101114.28
2023-05-05T22:32:35.798Z,101114.16
2023-05-05T22:36:02.871Z,101107.07
2023-05-05T22:39:29.930Z,101105.50
2023-05-05T22:42:57.088Z,101114.36
2023-05-05T22:46:24.182Z,101115.87
2023-05-05T22:49:51.156Z,101104.09
2023-05-05T22:53:18.333Z,101102.63
2023-05-05T22:56:45.385Z,101102.52
2023-05-05T23:00:14.751Z,101105.77
2023-05-05T23:03:41.743Z,101104.50
2023-05-05T23:07:08.667Z,101099.94
2023-05-05T23:10:35.468Z,101104.79
2023-05-05T23:14:02.446Z,101102.25
2023-05-05T23:17:29.468Z,101098.63
2023-05-05T23:20:56.403Z,101097.73
2023-05-05T23:24:23.457Z,101094.52
2023-05-05T23:27:50.620Z,101096.61
2023-05-05T23:31:17.500Z,101102.73
2023-05-05T23:34:44.664Z,101095.47
2023-05-05T23:38:11.592Z,101091.19
2023-05-05T23:41:38.836Z,101083.38
2023-05-05T23:45:06.288Z,101082.01
2023-05-05T23:48:33.431Z,101070.00
2023-05-05T23:52:00.666Z,101068.44
2023-05-05T23:55:27.837Z,101063.94
2023-05-05T23:58:55.340Z,101062.77
